createdAt,value
2022-12-11T00:01:17.103Z,18.40
2022-12-11T00:03:48.143Z,20.50
2022-12-11T00:06:19.187Z,16.50
2022-12-11T00:08:48.060Z,15.70
2022-12-11T00:11:17.221Z,14.50
2022-12-11T00:13:45.374Z,18.80
2022-12-11T00:16:13.579Z,15.90
2022-12-11T00:18:41.643Z,14.60
2022-12-11T00:21:13.741Z,18.10
2022-12-11T00:23:42.551Z,19.60
2022-12-11T00:26:14.604Z,13.80
2022-12-11T00:28:44.236Z,17.00
2022-12-11T00:31:18.880Z,15.30
2022-12-11T00:33:50.547Z,16.90
2022-12-11T00:36:25.338Z,14.50
2022-12-11T00:38:54.414Z,17.00
2022-12-11T00:41:23.060Z,21.70
2022-12-11T00:43:51.500Z,19.70
2022-12-11T00:46:19.720Z,19.70
2022-12-11T00:48:50.060Z,21.20
2022-12-11T00:51:18.309Z,14.50
2022-12-11T00:53:46.455Z,20.60
2022-12-11T00:56:20.094Z,15.50
2022-12-11T00:58:49.444Z,17.80
2022-12-11T01:01:24.581Z,19.30
2022-12-11T01:03:54.361Z,21.00
2022-12-11T01:06:25.344Z,18.60
2022-12-11T01:09:13.810Z,17.70
2022-12-11T01:11:43.464Z,13.60
2022-12-11T01:14:12.752Z,17.30
2022-12-11T01:16:40.876Z,9.00
2022-12-11T01:19:09.192Z,14.20
2022-12-11T01:21:37.226Z,24.30
2022-12-11T01:24:05.799Z,23.70
2022-12-11T01:26:33.904Z,20.20
2022-12-11T01:29:02.004Z,19.40
2022-12-11T01:31:30.176Z,21.50
2022-12-11T01:33:58.249Z,17.90
2022-12-11T01:36:26.260Z,20.70
2022-12-11T01:38:54.634Z,24.20
2022-12-11T01:41:22.919Z,20.10
2022-12-11T01:44:26.980Z,19.20
2022-12-11T01:46:55.118Z,19.60
2022-12-11T01:49:27.646Z,22.20
2022-12-11T01:52:10.726Z,23.40
2022-12-11T01:54:39.150Z,20.20
2022-12-11T01:57:09.567Z,22.70
2022-12-11T01:59:41.446Z,21.30
2022-12-11T02:04:43.209Z,20.30
2022-12-11T02:07:11.284Z,24.20
2022-12-11T02:09:42.716Z,23.10
2022-12-11T02:12:30.843Z,22.90
2022-12-11T02:15:07.856Z,25.80
2022-12-11T02:17:44.223Z,27.70
2022-12-11T02:20:30.361Z,25.40
2022-12-11T02:23:13.393Z,27.90
2022-12-11T02:25:54.415Z,23.10
2022-12-11T02:28:32.111Z,22.60
2022-12-11T02:31:13.151Z,22.00
2022-12-11T02:33:48.751Z,23.60
2022-12-11T02:36:20.830Z,26.90
2022-12-11T02:38:52.084Z,25.20
2022-12-11T02:41:22.918Z,21.30
2022-12-11T02:43:52.686Z,17.40
2022-12-11T02:46:22.407Z,19.70
2022-12-11T02:48:52.266Z,18.40
2022-12-11T02:51:27.153Z,21.20
2022-12-11T02:53:58.521Z,17.60
2022-12-11T02:56:36.727Z,22.20
2022-12-11T02:59:15.702Z,21.20
2022-12-11T03:01:44.186Z,21.90
2022-12-11T03:04:12.330Z,15.40
2022-12-11T03:06:46.729Z,21.60
2022-12-11T03:09:14.997Z,17.10
2022-12-11T03:11:43.010Z,24.20
2022-12-11T03:14:11.601Z,26.40
2022-12-11T03:16:46.579Z,22.20
2022-12-11T03:19:28.140Z,18.00
2022-12-11T03:22:16.701Z,23.70
2022-12-11T03:25:08.776Z,19.10
2022-12-11T03:30:19.154Z,17.70
2022-12-11T03:32:53.319Z,17.30
2022-12-11T03:35:28.506Z,18.70
2022-12-11T03:38:00.741Z,17.00
2022-12-11T03:40:33.393Z,18.80
2022-12-11T03:43:03.326Z,14.60
2022-12-11T03:48:03.046Z,22.90
2022-12-11T03:50:33.110Z,17.00
2022-12-11T03:53:03.404Z,14.20
2022-12-11T03:55:33.917Z,20.90
2022-12-11T03:58:02.243Z,19.90
2022-12-11T04:00:30.424Z,12.30
2022-12-11T04:03:14.533Z,14.60
2022-12-11T04:05:49.237Z,14.30
2022-12-11T04:08:19.028Z,18.10
2022-12-11T04:10:47.542Z,16.20
2022-12-11T04:13:15.593Z,14.70
2022-12-11T04:15:43.710Z,16.00
2022-12-11T04:18:30.446Z,14.80
2022-12-11T04:21:17.056Z,15.40
2022-12-11T04:24:03.785Z,16.30
2022-12-11T04:26:31.836Z,16.90
2022-12-11T04:28:59.858Z,19.10
2022-12-11T04:31:30.139Z,17.40
2022-12-11T04:33:58.318Z,18.70
2022-12-11T04:36:26.410Z,11.50
2022-12-11T04:38:54.435Z,15.10
2022-12-11T04:41:22.459Z,16.50
2022-12-11T04:43:50.481Z,15.60
2022-12-11T04:46:21.457Z,14.10
2022-12-11T04:48:56.810Z,12.60
2022-12-11T04:51:26.831Z,11.30
2022-12-11T04:53:55.390Z,12.30
2022-12-11T04:56:23.598Z,11.60
2022-12-11T04:58:51.621Z,16.10
2022-12-11T05:01:22.989Z,16.40
2022-12-11T05:03:51.452Z,14.70
2022-12-11T05:06:19.518Z,14.50
2022-12-11T05:08:47.693Z,14.00
2022-12-11T05:11:16.318Z,11.50
2022-12-11T05:13:45.585Z,14.30
2022-12-11T05:16:16.942Z,19.00
2022-12-11T05:18:45.176Z,17.20
2022-12-11T05:21:14.892Z,10.30
2022-12-11T05:23:43.193Z,13.00
2022-12-11T05:26:17.198Z,10.30
2022-12-11T05:28:46.434Z,11.50
2022-12-11T05:31:17.918Z,8.50
2022-12-11T05:33:47.938Z,10.40
2022-12-11T05:36:31.825Z,13.20
2022-12-11T05:39:01.125Z,11.80
2022-12-11T05:41:32.661Z,11.20
2022-12-11T05:44:00.893Z,9.10
2022-12-11T05:46:30.985Z,8.80
2022-12-11T05:49:01.312Z,12.00
2022-12-11T05:51:30.397Z,11.10
2022-12-11T05:53:58.637Z,11.80
2022-12-11T05:56:29.719Z,13.10
2022-12-11T05:58:59.412Z,18.50
2022-12-11T06:01:36.837Z,15.60
2022-12-11T06:04:06.881Z,12.30
2022-12-11T06:06:35.080Z,14.20
2022-12-11T06:09:04.722Z,15.20
2022-12-11T06:11:34.117Z,11.40
2022-12-11T06:14:03.744Z,14.60
2022-12-11T06:16:32.504Z,17.20
2022-12-11T06:19:00.657Z,17.00
2022-12-11T06:21:31.825Z,11.80
2022-12-11T06:24:02.822Z,12.50
2022-12-11T06:26:32.223Z,15.50
2022-12-11T06:29:00.355Z,12.70
2022-12-11T06:31:28.468Z,9.80
2022-12-11T06:33:56.595Z,11.30
2022-12-11T06:36:25.320Z,15.00
2022-12-11T06:38:55.489Z,14.20
2022-12-11T06:41:23.560Z,15.50
2022-12-11T06:43:51.659Z,16.70
2022-12-11T06:46:20.906Z,12.30
2022-12-11T06:48:49.821Z,9.20
2022-12-11T06:51:21.696Z,11.30
2022-12-11T06:53:54.428Z,12.80
2022-12-11T06:56:23.810Z,9.30
2022-12-11T06:58:52.483Z,14.50
2022-12-11T07:01:24.924Z,17.90
2022-12-11T07:03:58.647Z,15.00
2022-12-11T07:06:28.811Z,12.70
2022-12-11T07:08:57.154Z,14.70
2022-12-11T07:11:25.209Z,13.10
2022-12-11T07:13:53.184Z,12.60
2022-12-11T07:16:21.701Z,9.40
2022-12-11T07:18:51.402Z,9.70
2022-12-11T07:21:20.990Z,12.20
2022-12-11T07:23:50.477Z,10.30
2022-12-11T07:26:21.073Z,9.10
2022-12-11T07:28:49.470Z,12.40
2022-12-11T07:31:24.052Z,12.60
2022-12-11T07:34:05.414Z,9.70
2022-12-11T07:36:34.575Z,12.50
2022-12-11T07:39:02.634Z,12.80
2022-12-11T07:41:31.937Z,12.20
2022-12-11T07:44:01.472Z,14.30
2022-12-11T07:46:32.222Z,16.10
2022-12-11T07:49:01.095Z,13.10
2022-12-11T07:51:31.718Z,11.60
2022-12-11T07:54:13.084Z,15.00
2022-12-11T07:56:43.892Z,14.70
2022-12-11T07:59:12.813Z,11.70
2022-12-11T08:01:42.737Z,12.70
2022-12-11T08:04:15.607Z,13.50
2022-12-11T08:06:43.919Z,13.40
2022-12-11T08:09:20.936Z,9.00
2022-12-11T08:11:50.961Z,15.30
2022-12-11T08:14:19.693Z,11.40
2022-12-11T08:16:49.049Z,15.10
2022-12-11T08:19:18.065Z,13.50
2022-12-11T08:21:46.956Z,11.40
2022-12-11T08:24:20.354Z,9.60
2022-12-11T08:26:49.200Z,10.40
2022-12-11T08:29:17.659Z,10.10
2022-12-11T08:31:45.707Z,11.20
2022-12-11T08:34:14.371Z,11.40
2022-12-11T08:36:42.718Z,8.50
2022-12-11T08:39:10.725Z,11.30
2022-12-11T08:41:38.894Z,10.30
2022-12-11T08:44:16.275Z,8.90
2022-12-11T08:46:46.807Z,14.30
2022-12-11T08:49:14.896Z,10.70
2022-12-11T08:51:42.954Z,16.40
2022-12-11T08:54:11.846Z,12.30
2022-12-11T08:56:39.886Z,14.30
2022-12-11T08:59:08.045Z,11.00
2022-12-11T09:01:36.180Z,20.60
2022-12-11T09:04:04.330Z,15.50
2022-12-11T09:06:33.221Z,12.10
2022-12-11T09:09:01.772Z,29.50
2022-12-11T09:11:33.434Z,13.70
2022-12-11T09:14:07.216Z,13.20
2022-12-11T09:16:40.745Z,12.90
2022-12-11T09:19:14.269Z,14.10
2022-12-11T09:21:43.939Z,128.70
2022-12-11T09:24:13.399Z,29.10
2022-12-11T09:26:41.889Z,20.10
2022-12-11T09:29:12.361Z,14.40
2022-12-11T09:31:40.945Z,13.10
2022-12-11T09:34:12.736Z,12.10
2022-12-11T09:39:12.705Z,18.60
2022-12-11T09:41:48.003Z,18.90
2022-12-11T09:44:37.689Z,17.50
2022-12-11T09:47:20.810Z,20.00
2022-12-11T09:49:58.252Z,11.60
2022-12-11T09:52:32.723Z,20.60
2022-12-11T09:55:12.148Z,15.80
2022-12-11T09:57:46.804Z,17.60
2022-12-11T10:00:27.621Z,13.30
2022-12-11T10:03:20.434Z,15.90
2022-12-11T10:06:33.070Z,26.80
2022-12-11T10:09:06.429Z,14.90
2022-12-11T10:11:56.871Z,12.50
2022-12-11T10:14:59.531Z,15.90
2022-12-11T10:17:37.176Z,12.90
2022-12-11T10:20:35.344Z,11.00
2022-12-11T10:23:08.102Z,13.50
2022-12-11T10:25:40.408Z,17.90
2022-12-11T10:28:17.439Z,15.30
2022-12-11T10:31:11.555Z,14.60
2022-12-11T10:38:43.614Z,12.80
2022-12-11T10:41:17.534Z,15.70
2022-12-11T10:43:48.539Z,18.90
2022-12-11T10:46:23.304Z,22.30
2022-12-11T10:48:57.102Z,18.50
2022-12-11T10:51:30.911Z,23.80
2022-12-11T10:54:31.509Z,18.20
2022-12-11T10:57:02.386Z,21.50
2022-12-11T10:59:47.719Z,19.10
2022-12-11T11:02:38.909Z,27.00
2022-12-11T11:05:29.765Z,23.70
2022-12-11T11:08:22.671Z,28.30
2022-12-11T11:10:57.047Z,28.00
2022-12-11T11:13:30.301Z,23.20
2022-12-11T11:16:12.611Z,24.70
2022-12-11T11:18:43.541Z,32.30
2022-12-11T11:21:19.998Z,15.40
2022-12-11T11:23:53.277Z,16.20
2022-12-11T11:26:23.229Z,18.20
2022-12-11T11:28:55.748Z,19.00
2022-12-11T11:31:35.505Z,24.00
2022-12-11T11:34:08.436Z,25.70
2022-12-11T11:36:38.589Z,17.60
2022-12-11T11:39:20.613Z,18.30
2022-12-11T11:44:34.879Z,19.50
2022-12-11T11:47:14.134Z,19.80
2022-12-11T11:49:56.008Z,19.00
2022-12-11T11:52:45.600Z,19.70
2022-12-11T11:55:35.586Z,17.00
2022-12-11T11:58:23.134Z,17.80
2022-12-11T12:00:54.861Z,19.30
2022-12-11T12:03:25.492Z,22.60
2022-12-11T12:06:15.115Z,23.20
2022-12-11T12:09:16.702Z,25.20
2022-12-11T12:12:03.637Z,19.90
2022-12-11T12:15:13.998Z,13.60
2022-12-11T12:17:56.321Z,14.30
2022-12-11T12:20:36.770Z,13.40
2022-12-11T12:23:37.311Z,14.40
2022-12-11T12:26:21.675Z,18.40
2022-12-11T12:28:57.959Z,13.30
2022-12-11T12:31:28.930Z,22.20
2022-12-11T12:34:15.125Z,22.70
2022-12-11T12:37:29.115Z,27.10
2022-12-11T12:40:14.888Z,24.60
2022-12-11T12:43:01.192Z,24.80
2022-12-11T12:45:53.440Z,12.90
2022-12-11T12:48:25.079Z,17.50
2022-12-11T12:50:53.579Z,17.00
2022-12-11T12:53:26.031Z,18.80
2022-12-11T12:55:55.232Z,20.10
2022-12-11T12:58:28.721Z,25.90
2022-12-11T13:01:17.626Z,13.20
2022-12-11T13:04:02.481Z,21.80
2022-12-11T13:06:33.090Z,14.10
2022-12-11T13:09:30.493Z,16.90
2022-12-11T13:11:58.557Z,19.30
2022-12-11T13:14:32.721Z,15.10
2022-12-11T13:17:21.914Z,14.70
2022-12-11T13:19:57.636Z,21.30
2022-12-11T13:22:25.708Z,12.70
2022-12-11T13:24:53.696Z,13.90
2022-12-11T13:27:43.794Z,17.30
2022-12-11T13:30:14.552Z,19.00
2022-12-11T13:33:01.035Z,16.00
2022-12-11T13:35:30.663Z,16.90
2022-12-11T13:38:06.386Z,15.70
2022-12-11T13:40:40.372Z,15.30
2022-12-11T13:43:25.277Z,18.50
2022-12-11T13:45:57.900Z,13.90
2022-12-11T13:48:39.458Z,13.80
2022-12-11T13:51:07.520Z,18.40
2022-12-11T13:53:35.530Z,17.50
2022-12-11T13:56:06.812Z,15.40
2022-12-11T13:58:38.157Z,15.30
2022-12-11T14:01:14.686Z,21.90
2022-12-11T14:03:55.601Z,18.90
2022-12-11T14:06:26.450Z,14.40
2022-12-11T14:08:57.981Z,17.10
2022-12-11T14:11:30.203Z,13.70
2022-12-11T14:14:01.495Z,20.20
2022-12-11T14:16:30.689Z,14.50
2022-12-11T14:19:05.438Z,18.20
2022-12-11T14:21:34.241Z,19.00
2022-12-11T14:24:05.309Z,18.30
2022-12-11T14:26:38.024Z,23.30
2022-12-11T14:29:07.300Z,20.00
2022-12-11T14:31:41.099Z,29.90
2022-12-11T14:34:16.581Z,29.70
2022-12-11T14:36:48.146Z,28.60
2022-12-11T14:39:36.753Z,25.00
2022-12-11T14:42:10.812Z,25.80
2022-12-11T14:45:16.259Z,39.90
2022-12-11T14:47:45.092Z,21.40
2022-12-11T14:50:28.459Z,28.80
2022-12-11T14:53:02.887Z,32.00
2022-12-11T14:55:36.054Z,31.50
2022-12-11T14:58:29.231Z,49.30
2022-12-11T15:00:57.219Z,57.10
2022-12-11T15:03:33.671Z,48.60
2022-12-11T15:06:03.528Z,47.30
2022-12-11T15:08:35.301Z,46.50
2022-12-11T15:13:33.266Z,40.40
2022-12-11T15:16:02.023Z,41.30
2022-12-11T15:18:33.878Z,24.60
2022-12-11T15:23:34.836Z,39.30
2022-12-11T15:26:03.263Z,35.30
2022-12-11T15:28:37.373Z,41.30
2022-12-11T15:31:25.544Z,27.50
2022-12-11T15:33:54.026Z,29.90
2022-12-11T15:36:32.517Z,23.10
2022-12-11T15:39:02.948Z,32.40
2022-12-11T15:41:34.818Z,30.30
2022-12-11T15:44:04.660Z,28.90
2022-12-11T15:46:36.685Z,32.50
2022-12-11T15:49:12.972Z,28.60
2022-12-11T15:51:43.357Z,26.80
2022-12-11T15:54:11.696Z,26.60
2022-12-11T15:56:40.148Z,45.60
2022-12-11T15:59:08.228Z,40.40
2022-12-11T16:01:36.447Z,35.30
2022-12-11T16:04:05.337Z,26.10
2022-12-11T16:06:34.493Z,29.20
2022-12-11T16:09:05.219Z,32.60
2022-12-11T16:11:33.327Z,17.40
2022-12-11T16:14:04.524Z,28.80
2022-12-11T16:16:32.641Z,26.00
2022-12-11T16:19:00.985Z,24.40
2022-12-11T16:21:29.046Z,22.60
2022-12-11T16:23:57.111Z,26.20
2022-12-11T16:26:25.612Z,25.50
2022-12-11T16:28:53.667Z,21.10
2022-12-11T16:31:21.978Z,26.50
2022-12-11T16:33:50.115Z,37.50
2022-12-11T16:36:19.706Z,35.20
2022-12-11T16:38:53.586Z,25.60
2022-12-11T16:41:23.381Z,29.90
2022-12-11T16:43:51.664Z,26.50
2022-12-11T16:46:21.349Z,25.20
2022-12-11T16:48:50.055Z,24.50
2022-12-11T16:51:18.153Z,26.40
2022-12-11T16:53:46.791Z,23.90
2022-12-11T16:56:14.885Z,32.70
2022-12-11T16:58:43.063Z,24.20
2022-12-11T17:01:15.492Z,34.40
2022-12-11T17:03:44.577Z,37.00
2022-12-11T17:06:17.665Z,28.60
2022-12-11T17:08:46.913Z,22.30
2022-12-11T17:11:18.682Z,32.20
2022-12-11T17:13:46.772Z,38.20
2022-12-11T17:16:16.746Z,66.20
2022-12-11T17:18:44.945Z,26.60
2022-12-11T17:21:15.717Z,47.50
2022-12-11T17:23:45.241Z,41.90
2022-12-11T17:26:13.689Z,96.70
2022-12-11T17:28:41.727Z,187.30
2022-12-11T17:31:13.674Z,125.90
2022-12-11T17:33:42.495Z,106.60
2022-12-11T17:36:14.087Z,39.30
2022-12-11T17:38:42.172Z,48.20
2022-12-11T17:41:19.824Z,20.80
2022-12-11T17:43:50.795Z,31.20
2022-12-11T17:46:20.154Z,23.30
2022-12-11T17:48:49.309Z,20.80
2022-12-11T17:51:28.159Z,20.10
2022-12-11T17:54:05.327Z,13.90
2022-12-11T17:56:35.024Z,25.80
2022-12-11T17:59:03.412Z,25.90
2022-12-11T18:01:31.564Z,22.20
2022-12-11T18:04:01.994Z,20.20
2022-12-11T18:06:30.886Z,18.90
2022-12-11T18:08:58.896Z,20.40
2022-12-11T18:11:27.015Z,22.30
2022-12-11T18:13:55.498Z,33.30
2022-12-11T18:16:32.608Z,19.00
2022-12-11T18:19:01.809Z,22.40
2022-12-11T18:21:33.881Z,26.80
2022-12-11T18:24:03.016Z,22.00
2022-12-11T18:26:31.436Z,31.70
2022-12-11T18:28:59.487Z,27.90
2022-12-11T18:31:27.495Z,29.80
2022-12-11T18:33:56.355Z,29.80
2022-12-11T18:36:24.396Z,22.60
2022-12-11T18:38:52.576Z,31.40
2022-12-11T18:41:20.716Z,25.80
2022-12-11T18:43:48.911Z,29.30
2022-12-11T18:48:48.546Z,27.50
2022-12-11T18:51:22.689Z,24.20
2022-12-11T18:53:51.705Z,24.50
2022-12-11T18:56:21.133Z,22.20
2022-12-11T18:58:52.255Z,32.90
2022-12-11T19:01:29.122Z,24.30
2022-12-11T19:04:03.583Z,36.20
2022-12-11T19:06:35.784Z,17.20
2022-12-11T19:09:06.064Z,27.80
2022-12-11T19:11:35.652Z,35.00
2022-12-11T19:14:05.354Z,23.80
2022-12-11T19:16:37.518Z,31.60
2022-12-11T19:19:12.659Z,32.30
2022-12-11T19:21:41.701Z,21.40
2022-12-11T19:24:15.305Z,27.00
2022-12-11T19:26:43.517Z,25.20
2022-12-11T19:29:20.310Z,33.50
2022-12-11T19:31:48.553Z,21.50
2022-12-11T19:34:17.052Z,23.50
2022-12-11T19:36:45.238Z,32.80
2022-12-11T19:41:43.001Z,25.40
2022-12-11T19:44:12.087Z,30.70
2022-12-11T19:46:40.444Z,38.40
2022-12-11T19:49:08.594Z,38.60
2022-12-11T19:51:38.986Z,22.70
2022-12-11T19:54:09.986Z,27.40
2022-12-11T19:56:38.420Z,30.10
2022-12-11T19:59:09.065Z,40.60
2022-12-11T20:01:38.304Z,27.70
2022-12-11T20:04:12.876Z,30.60
2022-12-11T20:06:43.443Z,29.80
2022-12-11T20:09:13.289Z,17.80
2022-12-11T20:11:43.924Z,30.40
2022-12-11T20:14:26.405Z,27.80
2022-12-11T20:17:13.759Z,36.80
2022-12-11T20:19:43.284Z,35.30
2022-12-11T20:22:11.901Z,35.80
2022-12-11T20:24:40.746Z,36.70
2022-12-11T20:27:10.236Z,28.70
2022-12-11T20:29:39.113Z,29.50
2022-12-11T20:32:07.752Z,30.00
2022-12-11T20:34:35.921Z,29.40
2022-12-11T20:37:04.019Z,33.20
2022-12-11T20:39:32.182Z,31.60
2022-12-11T20:42:01.317Z,32.70
2022-12-11T20:44:29.365Z,33.40
2022-12-11T20:46:57.450Z,36.40
2022-12-11T20:49:25.621Z,27.00
2022-12-11T20:51:54.080Z,30.90
2022-12-11T20:54:22.111Z,20.20
2022-12-11T20:56:51.524Z,59.40
2022-12-11T20:59:19.634Z,47.70
2022-12-11T21:01:47.711Z,25.80
2022-12-11T21:04:15.869Z,44.10
2022-12-11T21:06:43.912Z,28.20
2022-12-11T21:09:19.511Z,23.90
2022-12-11T21:11:48.384Z,49.60
2022-12-11T21:14:17.925Z,41.70
2022-12-11T21:16:46.676Z,37.50
2022-12-11T21:19:17.800Z,22.30
2022-12-11T21:21:46.436Z,37.30
2022-12-11T21:24:18.795Z,34.40
2022-12-11T21:26:48.123Z,33.10
2022-12-11T21:29:17.001Z,19.10
2022-12-11T21:31:45.317Z,30.70
2022-12-11T21:34:14.257Z,27.10
2022-12-11T21:36:42.655Z,31.70
2022-12-11T21:39:12.452Z,36.10
2022-12-11T21:41:41.877Z,31.20
2022-12-11T21:46:59.631Z,34.50
2022-12-11T21:49:27.748Z,33.20
2022-12-11T21:51:56.157Z,39.20
2022-12-11T21:54:24.254Z,37.70
2022-12-11T21:56:52.318Z,42.20
2022-12-11T21:59:20.644Z,35.20
2022-12-11T22:01:48.636Z,28.40
2022-12-11T22:04:16.942Z,34.70
2022-12-11T22:06:47.362Z,34.00
2022-12-11T22:09:17.907Z,30.20
2022-12-11T22:11:46.963Z,24.20
2022-12-11T22:14:17.103Z,32.80
2022-12-11T22:16:45.814Z,36.50
2022-12-11T22:19:14.040Z,37.30
2022-12-11T22:21:42.574Z,33.00
2022-12-11T22:24:10.641Z,31.90
2022-12-11T22:26:39.208Z,23.40
2022-12-11T22:29:07.258Z,28.00
2022-12-11T22:31:35.312Z,28.20
2022-12-11T22:34:03.334Z,35.40
2022-12-11T22:36:31.367Z,23.20
2022-12-11T22:39:00.581Z,24.70
2022-12-11T22:41:31.428Z,31.60
2022-12-11T22:44:00.011Z,35.60
2022-12-11T22:46:30.196Z,32.50
2022-12-11T22:48:59.000Z,27.10
2022-12-11T22:51:27.189Z,27.20
2022-12-11T22:53:55.243Z,17.20
2022-12-11T22:56:23.332Z,27.50
2022-12-11T22:58:51.429Z,25.50
2022-12-11T23:01:24.901Z,28.00
2022-12-11T23:03:53.403Z,31.70
2022-12-11T23:06:25.042Z,35.50
2022-12-11T23:08:56.983Z,35.40
2022-12-11T23:11:31.417Z,21.20
2022-12-11T23:13:59.451Z,36.30
2022-12-11T23:16:27.691Z,26.60
2022-12-11T23:18:57.697Z,36.70
2022-12-11T23:21:28.095Z,32.70
2022-12-11T23:23:57.849Z,46.20
2022-12-11T23:26:27.496Z,31.60
2022-12-11T23:28:56.996Z,37.10
2022-12-11T23:31:25.893Z,28.80
2022-12-11T23:33:54.380Z,72.10
2022-12-11T23:36:23.072Z,94.50
2022-12-11T23:38:54.803Z,31.00
2022-12-11T23:41:23.730Z,45.80
2022-12-11T23:43:52.427Z,38.10
2022-12-11T23:46:22.946Z,35.20
2022-12-11T23:48:52.455Z,33.60
2022-12-11T23:51:23.191Z,48.60
2022-12-11T23:53:52.538Z,29.00
2022-12-11T23:56:25.024Z,17.40
2022-12-11T23:58:53.846Z,44.80
